sensor_id;sensor_type;location;lat;lon;timestamp;P1;durP1;ratioP1;P2;durP2;ratioP2
13040;SDS011;6587;42.728;23.288;2023-03-23T00:01:23;98.70;;;51.00;;
13040;SDS011;6587;42.728;23.288;2023-03-23T00:03:52;90.07;;;46.67;;
13040;SDS011;6587;42.728;23.288;2023-03-23T00:06:20;92.30;;;47.03;;
13040;SDS011;6587;42.728;23.288;2023-03-23T00:08:48;89.73;;;47.97;;
13040;SDS011;6587;42.728;23.288;2023-03-23T00:11:20;86.37;;;45.93;;
13040;SDS011;6587;42.728;23.288;2023-03-23T00:13:47;86.93;;;46.63;;
13040;SDS011;6587;42.728;23.288;2023-03-23T00:16:17;101.03;;;46.30;;
13040;SDS011;6587;42.728;23.288;2023-03-23T00:18:44;84.00;;;43.67;;
13040;SDS011;6587;42.728;23.288;2023-03-23T00:21:10;84.30;;;46.00;;
13040;SDS011;6587;42.728;23.288;2023-03-23T00:23:37;92.43;;;46.23;;
13040;SDS011;6587;42.728;23.288;2023-03-23T00:26:04;95.37;;;47.60;;
13040;SDS011;6587;42.728;23.288;2023-03-23T00:28:33;83.60;;;44.73;;
13040;SDS011;6587;42.728;23.288;2023-03-23T00:31:01;96.17;;;48.63;;
13040;SDS011;6587;42.728;23.288;2023-03-23T00:33:30;81.77;;;44.60;;
13040;SDS011;6587;42.728;23.288;2023-03-23T00:35:59;84.23;;;44.87;;
13040;SDS011;6587;42.728;23.288;2023-03-23T00:38:25;78.73;;;45.87;;
13040;SDS011;6587;42.728;23.288;2023-03-23T00:40:52;85.87;;;45.70;;
13040;SDS011;6587;42.728;23.288;2023-03-23T00:43:20;92.70;;;46.63;;
13040;SDS011;6587;42.728;23.288;2023-03-23T00:45:51;80.40;;;44.27;;
13040;SDS011;6587;42.728;23.288;2023-03-23T00:48:18;85.93;;;46.90;;
13040;SDS011;6587;42.728;23.288;2023-03-23T00:50:45;74.37;;;42.23;;
13040;SDS011;6587;42.728;23.288;2023-03-23T00:53:12;88.80;;;46.10;;
13040;SDS011;6587;42.728;23.288;2023-03-23T00:55:40;86.33;;;44.90;;
13040;SDS011;6587;42.728;23.288;2023-03-23T00:58:06;90.47;;;44.47;;
13040;SDS011;6587;42.728;23.288;2023-03-23T01:00:35;81.53;;;42.23;;
13040;SDS011;6587;42.728;23.288;2023-03-23T01:03:04;70.67;;;41.10;;
13040;SDS011;6587;42.728;23.288;2023-03-23T01:05:33;72.30;;;37.83;;
13040;SDS011;6587;42.728;23.288;2023-03-23T01:08:00;63.30;;;35.73;;
13040;SDS011;6587;42.728;23.288;2023-03-23T01:10:29;55.53;;;33.77;;
13040;SDS011;6587;42.728;23.288;2023-03-23T01:12:58;55.47;;;33.43;;
13040;SDS011;6587;42.728;23.288;2023-03-23T01:15:25;57.90;;;33.00;;
13040;SDS011;6587;42.728;23.288;2023-03-23T01:17:51;53.77;;;31.43;;
13040;SDS011;6587;42.728;23.288;2023-03-23T01:20:19;61.00;;;31.53;;
13040;SDS011;6587;42.728;23.288;2023-03-23T01:22:46;49.73;;;30.43;;
13040;SDS011;6587;42.728;23.288;2023-03-23T01:25:13;54.00;;;30.60;;
13040;SDS011;6587;42.728;23.288;2023-03-23T01:27:40;51.90;;;29.57;;
13040;SDS011;6587;42.728;23.288;2023-03-23T01:30:08;55.43;;;30.00;;
13040;SDS011;6587;42.728;23.288;2023-03-23T01:32:35;60.63;;;32.03;;
13040;SDS011;6587;42.728;23.288;2023-03-23T01:35:02;53.27;;;32.27;;
13040;SDS011;6587;42.728;23.288;2023-03-23T01:37:30;56.73;;;32.37;;
13040;SDS011;6587;42.728;23.288;2023-03-23T01:39:58;53.17;;;31.37;;
13040;SDS011;6587;42.728;23.288;2023-03-23T01:42:25;65.03;;;36.67;;
13040;SDS011;6587;42.728;23.288;2023-03-23T01:47:59;50.20;;;29.07;;
13040;SDS011;6587;42.728;23.288;2023-03-23T01:50:29;56.77;;;30.27;;
13040;SDS011;6587;42.728;23.288;2023-03-23T01:52:57;54.30;;;31.50;;
13040;SDS011;6587;42.728;23.288;2023-03-23T01:55:25;58.50;;;31.07;;
13040;SDS011;6587;42.728;23.288;2023-03-23T01:57:53;58.63;;;31.73;;
13040;SDS011;6587;42.728;23.288;2023-03-23T02:00:22;57.27;;;31.97;;
13040;SDS011;6587;42.728;23.288;2023-03-23T02:02:52;61.93;;;33.23;;
13040;SDS011;6587;42.728;23.288;2023-03-23T02:05:24;62.47;;;32.93;;
13040;SDS011;6587;42.728;23.288;2023-03-23T02:07:54;56.70;;;31.97;;
13040;SDS011;6587;42.728;23.288;2023-03-23T02:10:26;57.63;;;31.83;;
13040;SDS011;6587;42.728;23.288;2023-03-23T02:12:53;55.53;;;31.47;;
13040;SDS011;6587;42.728;23.288;2023-03-23T02:15:19;53.77;;;31.43;;
13040;SDS011;6587;42.728;23.288;2023-03-23T02:17:49;56.93;;;30.83;;
13040;SDS011;6587;42.728;23.288;2023-03-23T02:20:20;52.53;;;29.53;;
13040;SDS011;6587;42.728;23.288;2023-03-23T02:22:54;53.77;;;30.87;;
13040;SDS011;6587;42.728;23.288;2023-03-23T02:25:35;48.87;;;29.53;;
13040;SDS011;6587;42.728;23.288;2023-03-23T02:28:07;49.50;;;29.60;;
13040;SDS011;6587;42.728;23.288;2023-03-23T02:30:40;50.70;;;28.40;;
13040;SDS011;6587;42.728;23.288;2023-03-23T02:33:14;51.00;;;28.60;;
13040;SDS011;6587;42.728;23.288;2023-03-23T02:35:44;47.67;;;28.23;;
13040;SDS011;6587;42.728;23.288;2023-03-23T02:38:13;51.60;;;30.33;;
13040;SDS011;6587;42.728;23.288;2023-03-23T02:40:43;50.10;;;30.03;;
13040;SDS011;6587;42.728;23.288;2023-03-23T02:43:12;49.97;;;30.13;;
13040;SDS011;6587;42.728;23.288;2023-03-23T02:45:40;49.67;;;29.57;;
13040;SDS011;6587;42.728;23.288;2023-03-23T02:48:08;52.40;;;29.20;;
13040;SDS011;6587;42.728;23.288;2023-03-23T02:50:37;50.87;;;29.20;;
13040;SDS011;6587;42.728;23.288;2023-03-23T02:53:05;50.13;;;28.53;;
13040;SDS011;6587;42.728;23.288;2023-03-23T02:55:36;51.97;;;28.43;;
13040;SDS011;6587;42.728;23.288;2023-03-23T02:58:07;45.70;;;27.23;;
13040;SDS011;6587;42.728;23.288;2023-03-23T03:00:34;52.20;;;28.87;;
13040;SDS011;6587;42.728;23.288;2023-03-23T03:03:01;50.27;;;30.00;;
13040;SDS011;6587;42.728;23.288;2023-03-23T03:05:34;50.20;;;30.10;;
13040;SDS011;6587;42.728;23.288;2023-03-23T03:08:09;52.37;;;30.53;;
13040;SDS011;6587;42.728;23.288;2023-03-23T03:10:42;55.37;;;30.53;;
13040;SDS011;6587;42.728;23.288;2023-03-23T03:13:13;53.83;;;30.37;;
13040;SDS011;6587;42.728;23.288;2023-03-23T03:15:43;55.23;;;29.87;;
13040;SDS011;6587;42.728;23.288;2023-03-23T03:18:12;51.23;;;29.37;;
13040;SDS011;6587;42.728;23.288;2023-03-23T03:20:42;49.90;;;29.70;;
13040;SDS011;6587;42.728;23.288;2023-03-23T03:23:11;50.47;;;28.90;;
13040;SDS011;6587;42.728;23.288;2023-03-23T03:25:41;57.23;;;31.33;;
13040;SDS011;6587;42.728;23.288;2023-03-23T03:28:14;54.63;;;31.20;;
13040;SDS011;6587;42.728;23.288;2023-03-23T03:30:43;55.40;;;31.43;;
13040;SDS011;6587;42.728;23.288;2023-03-23T03:33:12;52.33;;;29.90;;
13040;SDS011;6587;42.728;23.288;2023-03-23T03:35:40;50.63;;;29.33;;
13040;SDS011;6587;42.728;23.288;2023-03-23T03:38:10;50.00;;;28.47;;
13040;SDS011;6587;42.728;23.288;2023-03-23T03:40:40;52.60;;;30.03;;
13040;SDS011;6587;42.728;23.288;2023-03-23T03:43:07;52.00;;;29.97;;
13040;SDS011;6587;42.728;23.288;2023-03-23T03:45:33;52.97;;;28.77;;
13040;SDS011;6587;42.728;23.288;2023-03-23T03:48:00;54.30;;;32.43;;
13040;SDS011;6587;42.728;23.288;2023-03-23T03:50:28;57.10;;;32.37;;
13040;SDS011;6587;42.728;23.288;2023-03-23T03:52:55;52.30;;;31.63;;
13040;SDS011;6587;42.728;23.288;2023-03-23T03:55:23;54.80;;;30.73;;
13040;SDS011;6587;42.728;23.288;2023-03-23T03:57:53;55.93;;;33.47;;
13040;SDS011;6587;42.728;23.288;2023-03-23T04:00:44;63.30;;;36.70;;
13040;SDS011;6587;42.728;23.288;2023-03-23T04:03:16;66.90;;;37.07;;
13040;SDS011;6587;42.728;23.288;2023-03-23T04:05:54;60.77;;;34.60;;
13040;SDS011;6587;42.728;23.288;2023-03-23T04:08:21;61.80;;;34.90;;
13040;SDS011;6587;42.728;23.288;2023-03-23T04:10:49;54.00;;;30.37;;
13040;SDS011;6587;42.728;23.288;2023-03-23T04:13:19;50.50;;;28.50;;
13040;SDS011;6587;42.728;23.288;2023-03-23T04:16:14;48.97;;;28.30;;
13040;SDS011;6587;42.728;23.288;2023-03-23T04:18:43;56.33;;;29.77;;
13040;SDS011;6587;42.728;23.288;2023-03-23T04:21:10;47.90;;;27.63;;
13040;SDS011;6587;42.728;23.288;2023-03-23T04:23:37;43.87;;;26.13;;
13040;SDS011;6587;42.728;23.288;2023-03-23T04:26:06;44.90;;;26.27;;
13040;SDS011;6587;42.728;23.288;2023-03-23T04:28:39;45.40;;;25.77;;
13040;SDS011;6587;42.728;23.288;2023-03-23T04:31:41;45.03;;;27.30;;
13040;SDS011;6587;42.728;23.288;2023-03-23T04:34:22;45.43;;;26.23;;
13040;SDS011;6587;42.728;23.288;2023-03-23T04:36:51;51.80;;;28.43;;
13040;SDS011;6587;42.728;23.288;2023-03-23T04:39:24;63.00;;;29.10;;
13040;SDS011;6587;42.728;23.288;2023-03-23T04:41:55;52.87;;;28.80;;
13040;SDS011;6587;42.728;23.288;2023-03-23T04:44:46;58.30;;;29.70;;
13040;SDS011;6587;42.728;23.288;2023-03-23T04:47:20;59.27;;;31.40;;
13040;SDS011;6587;42.728;23.288;2023-03-23T04:49:53;69.43;;;34.40;;
13040;SDS011;6587;42.728;23.288;2023-03-23T04:52:39;61.40;;;32.53;;
13040;SDS011;6587;42.728;23.288;2023-03-23T04:55:11;49.87;;;29.43;;
13040;SDS011;6587;42.728;23.288;2023-03-23T04:57:41;53.70;;;29.07;;
13040;SDS011;6587;42.728;23.288;2023-03-23T05:00:38;57.57;;;31.03;;
13040;SDS011;6587;42.728;23.288;2023-03-23T05:03:06;55.10;;;29.50;;
13040;SDS011;6587;42.728;23.288;2023-03-23T05:05:33;49.70;;;28.20;;
13040;SDS011;6587;42.728;23.288;2023-03-23T05:08:05;54.87;;;31.03;;
13040;SDS011;6587;42.728;23.288;2023-03-23T05:10:35;55.30;;;30.03;;
13040;SDS011;6587;42.728;23.288;2023-03-23T05:13:07;57.63;;;31.33;;
13040;SDS011;6587;42.728;23.288;2023-03-23T05:15:34;58.80;;;30.97;;
13040;SDS011;6587;42.728;23.288;2023-03-23T05:18:05;53.03;;;32.00;;
13040;SDS011;6587;42.728;23.288;2023-03-23T05:20:33;59.80;;;32.30;;
13040;SDS011;6587;42.728;23.288;2023-03-23T05:23:04;67.60;;;36.93;;
13040;SDS011;6587;42.728;23.288;2023-03-23T05:25:34;54.73;;;30.97;;
13040;SDS011;6587;42.728;23.288;2023-03-23T05:28:10;57.13;;;31.27;;
13040;SDS011;6587;42.728;23.288;2023-03-23T05:30:56;60.53;;;29.70;;
13040;SDS011;6587;42.728;23.288;2023-03-23T05:33:29;47.57;;;28.60;;
13040;SDS011;6587;42.728;23.288;2023-03-23T05:36:07;51.50;;;26.10;;
13040;SDS011;6587;42.728;23.288;2023-03-23T05:38:56;58.80;;;28.37;;
13040;SDS011;6587;42.728;23.288;2023-03-23T05:41:30;68.53;;;29.87;;
13040;SDS011;6587;42.728;23.288;2023-03-23T05:43:58;79.63;;;29.03;;
13040;SDS011;6587;42.728;23.288;2023-03-23T05:46:38;94.83;;;29.67;;
13040;SDS011;6587;42.728;23.288;2023-03-23T05:49:07;70.33;;;28.73;;
13040;SDS011;6587;42.728;23.288;2023-03-23T05:51:40;103.87;;;34.27;;
13040;SDS011;6587;42.728;23.288;2023-03-23T05:54:06;96.23;;;33.13;;
13040;SDS011;6587;42.728;23.288;2023-03-23T05:56:34;123.67;;;35.03;;
13040;SDS011;6587;42.728;23.288;2023-03-23T05:59:24;96.93;;;31.37;;
13040;SDS011;6587;42.728;23.288;2023-03-23T06:01:55;89.13;;;29.30;;
13040;SDS011;6587;42.728;23.288;2023-03-23T06:04:24;90.97;;;30.17;;
13040;SDS011;6587;42.728;23.288;2023-03-23T06:07:15;59.60;;;27.43;;
13040;SDS011;6587;42.728;23.288;2023-03-23T06:09:52;63.83;;;28.80;;
13040;SDS011;6587;42.728;23.288;2023-03-23T06:12:22;54.07;;;28.23;;
13040;SDS011;6587;42.728;23.288;2023-03-23T06:15:02;54.23;;;28.47;;
13040;SDS011;6587;42.728;23.288;2023-03-23T06:17:49;58.73;;;29.90;;
13040;SDS011;6587;42.728;23.288;2023-03-23T06:20:23;56.83;;;29.63;;
13040;SDS011;6587;42.728;23.288;2023-03-23T06:22:51;57.90;;;30.30;;
13040;SDS011;6587;42.728;23.288;2023-03-23T06:25:30;60.83;;;30.27;;
13040;SDS011;6587;42.728;23.288;2023-03-23T06:27:58;57.10;;;29.40;;
13040;SDS011;6587;42.728;23.288;2023-03-23T06:30:25;65.10;;;31.07;;
13040;SDS011;6587;42.728;23.288;2023-03-23T06:32:55;55.50;;;29.43;;
13040;SDS011;6587;42.728;23.288;2023-03-23T06:35:44;52.33;;;29.33;;
13040;SDS011;6587;42.728;23.288;2023-03-23T06:38:25;54.83;;;28.77;;
13040;SDS011;6587;42.728;23.288;2023-03-23T06:40:54;57.60;;;29.70;;
13040;SDS011;6587;42.728;23.288;2023-03-23T06:43:23;57.43;;;30.23;;
13040;SDS011;6587;42.728;23.288;2023-03-23T06:46:05;64.07;;;32.30;;
13040;SDS011;6587;42.728;23.288;2023-03-23T06:48:37;63.20;;;32.20;;
13040;SDS011;6587;42.728;23.288;2023-03-23T06:51:09;59.63;;;31.17;;
13040;SDS011;6587;42.728;23.288;2023-03-23T06:53:38;57.13;;;31.50;;
13040;SDS011;6587;42.728;23.288;2023-03-23T06:56:08;56.43;;;29.63;;
13040;SDS011;6587;42.728;23.288;2023-03-23T06:58:37;54.03;;;30.23;;
13040;SDS011;6587;42.728;23.288;2023-03-23T07:01:04;50.50;;;28.13;;
13040;SDS011;6587;42.728;23.288;2023-03-23T07:03:38;49.43;;;29.33;;
13040;SDS011;6587;42.728;23.288;2023-03-23T07:06:07;50.60;;;29.17;;
13040;SDS011;6587;42.728;23.288;2023-03-23T07:08:41;53.57;;;29.37;;
13040;SDS011;6587;42.728;23.288;2023-03-23T07:11:15;50.77;;;28.67;;
13040;SDS011;6587;42.728;23.288;2023-03-23T07:13:42;53.00;;;28.03;;
13040;SDS011;6587;42.728;23.288;2023-03-23T07:16:09;49.43;;;26.93;;
13040;SDS011;6587;42.728;23.288;2023-03-23T07:18:37;50.00;;;28.03;;
13040;SDS011;6587;42.728;23.288;2023-03-23T07:21:05;48.17;;;28.07;;
13040;SDS011;6587;42.728;23.288;2023-03-23T07:23:32;45.73;;;27.10;;
13040;SDS011;6587;42.728;23.288;2023-03-23T07:26:10;43.63;;;24.67;;
13040;SDS011;6587;42.728;23.288;2023-03-23T07:28:41;39.20;;;24.57;;
13040;SDS011;6587;42.728;23.288;2023-03-23T07:31:25;39.70;;;24.10;;
13040;SDS011;6587;42.728;23.288;2023-03-23T07:33:55;45.20;;;26.13;;
13040;SDS011;6587;42.728;23.288;2023-03-23T07:36:28;43.00;;;25.73;;
13040;SDS011;6587;42.728;23.288;2023-03-23T07:38:55;41.90;;;24.73;;
13040;SDS011;6587;42.728;23.288;2023-03-23T07:41:24;44.87;;;24.17;;
13040;SDS011;6587;42.728;23.288;2023-03-23T07:43:53;43.67;;;24.70;;
13040;SDS011;6587;42.728;23.288;2023-03-23T07:46:30;44.83;;;25.57;;
13040;SDS011;6587;42.728;23.288;2023-03-23T07:49:08;41.07;;;24.03;;
13040;SDS011;6587;42.728;23.288;2023-03-23T07:51:41;40.87;;;25.23;;
13040;SDS011;6587;42.728;23.288;2023-03-23T07:54:11;51.23;;;32.03;;
13040;SDS011;6587;42.728;23.288;2023-03-23T07:57:00;36.70;;;23.03;;
13040;SDS011;6587;42.728;23.288;2023-03-23T07:59:34;39.63;;;24.10;;
13040;SDS011;6587;42.728;23.288;2023-03-23T08:02:01;38.87;;;22.07;;
13040;SDS011;6587;42.728;23.288;2023-03-23T08:04:32;38.53;;;23.63;;
13040;SDS011;6587;42.728;23.288;2023-03-23T08:07:14;37.00;;;21.77;;
13040;SDS011;6587;42.728;23.288;2023-03-23T08:10:02;36.87;;;22.40;;
13040;SDS011;6587;42.728;23.288;2023-03-23T08:12:44;42.27;;;22.93;;
13040;SDS011;6587;42.728;23.288;2023-03-23T08:15:32;37.90;;;22.17;;
13040;SDS011;6587;42.728;23.288;2023-03-23T08:18:28;37.57;;;21.80;;
13040;SDS011;6587;42.728;23.288;2023-03-23T08:21:24;37.10;;;22.13;;
13040;SDS011;6587;42.728;23.288;2023-03-23T08:24:18;36.10;;;23.73;;
13040;SDS011;6587;42.728;23.288;2023-03-23T08:27:05;38.77;;;23.00;;
13040;SDS011;6587;42.728;23.288;2023-03-23T08:29:46;37.63;;;23.43;;
13040;SDS011;6587;42.728;23.288;2023-03-23T08:32:45;33.17;;;20.77;;
13040;SDS011;6587;42.728;23.288;2023-03-23T08:35:30;36.33;;;21.00;;
13040;SDS011;6587;42.728;23.288;2023-03-23T08:38:16;31.00;;;20.50;;
13040;SDS011;6587;42.728;23.288;2023-03-23T08:41:06;36.70;;;20.13;;
13040;SDS011;6587;42.728;23.288;2023-03-23T08:43:48;35.43;;;22.07;;
13040;SDS011;6587;42.728;23.288;2023-03-23T08:46:55;32.03;;;19.93;;
13040;SDS011;6587;42.728;23.288;2023-03-23T08:49:45;27.13;;;17.70;;
13040;SDS011;6587;42.728;23.288;2023-03-23T08:52:46;22.90;;;15.27;;
13040;SDS011;6587;42.728;23.288;2023-03-23T08:55:43;26.43;;;16.87;;
13040;SDS011;6587;42.728;23.288;2023-03-23T08:58:25;26.13;;;15.47;;
13040;SDS011;6587;42.728;23.288;2023-03-23T09:01:08;14.87;;;9.73;;
13040;SDS011;6587;42.728;23.288;2023-03-23T09:03:44;15.37;;;11.20;;
13040;SDS011;6587;42.728;23.288;2023-03-23T09:06:19;16.63;;;10.73;;
13040;SDS011;6587;42.728;23.288;2023-03-23T09:08:46;16.67;;;11.03;;
13040;SDS011;6587;42.728;23.288;2023-03-23T09:11:13;15.30;;;10.50;;
13040;SDS011;6587;42.728;23.288;2023-03-23T09:13:41;17.57;;;10.43;;
13040;SDS011;6587;42.728;23.288;2023-03-23T09:16:09;18.50;;;10.57;;
13040;SDS011;6587;42.728;23.288;2023-03-23T09:18:35;15.30;;;10.70;;
13040;SDS011;6587;42.728;23.288;2023-03-23T09:21:03;15.27;;;11.23;;
13040;SDS011;6587;42.728;23.288;2023-03-23T09:23:30;13.90;;;10.13;;
13040;SDS011;6587;42.728;23.288;2023-03-23T09:25:59;32.63;;;11.27;;
13040;SDS011;6587;42.728;23.288;2023-03-23T09:28:26;13.20;;;9.77;;
13040;SDS011;6587;42.728;23.288;2023-03-23T09:30:54;11.33;;;8.60;;
13040;SDS011;6587;42.728;23.288;2023-03-23T09:33:21;12.77;;;10.00;;
13040;SDS011;6587;42.728;23.288;2023-03-23T09:35:48;15.50;;;10.47;;
13040;SDS011;6587;42.728;23.288;2023-03-23T09:38:16;12.37;;;9.00;;
13040;SDS011;6587;42.728;23.288;2023-03-23T09:40:44;14.53;;;10.30;;
13040;SDS011;6587;42.728;23.288;2023-03-23T09:43:32;15.13;;;10.73;;
13040;SDS011;6587;42.728;23.288;2023-03-23T09:46:02;16.23;;;10.37;;
13040;SDS011;6587;42.728;23.288;2023-03-23T09:48:37;12.23;;;9.10;;
13040;SDS011;6587;42.728;23.288;2023-03-23T09:51:07;13.40;;;8.67;;
13040;SDS011;6587;42.728;23.288;2023-03-23T09:53:38;13.33;;;9.60;;
13040;SDS011;6587;42.728;23.288;2023-03-23T09:56:08;15.03;;;9.43;;
13040;SDS011;6587;42.728;23.288;2023-03-23T09:58:37;14.83;;;9.80;;
13040;SDS011;6587;42.728;23.288;2023-03-23T10:01:10;11.90;;;8.80;;
13040;SDS011;6587;42.728;23.288;2023-03-23T10:03:39;13.97;;;9.13;;
13040;SDS011;6587;42.728;23.288;2023-03-23T10:06:07;12.60;;;8.67;;
13040;SDS011;6587;42.728;23.288;2023-03-23T10:08:35;12.33;;;8.73;;
13040;SDS011;6587;42.728;23.288;2023-03-23T10:11:07;11.13;;;8.70;;
13040;SDS011;6587;42.728;23.288;2023-03-23T10:13:40;12.53;;;8.47;;
13040;SDS011;6587;42.728;23.288;2023-03-23T10:16:10;10.77;;;8.10;;
13040;SDS011;6587;42.728;23.288;2023-03-23T10:18:38;14.03;;;9.03;;
13040;SDS011;6587;42.728;23.288;2023-03-23T10:21:10;10.03;;;8.37;;
13040;SDS011;6587;42.728;23.288;2023-03-23T10:23:43;8.83;;;7.27;;
13040;SDS011;6587;42.728;23.288;2023-03-23T10:26:16;10.90;;;7.80;;
13040;SDS011;6587;42.728;23.288;2023-03-23T10:28:46;7.70;;;6.60;;
13040;SDS011;6587;42.728;23.288;2023-03-23T10:31:15;8.50;;;7.60;;
13040;SDS011;6587;42.728;23.288;2023-03-23T10:33:43;9.53;;;7.67;;
13040;SDS011;6587;42.728;23.288;2023-03-23T10:36:12;12.07;;;7.97;;
13040;SDS011;6587;42.728;23.288;2023-03-23T10:38:43;11.67;;;8.70;;
13040;SDS011;6587;42.728;23.288;2023-03-23T10:41:11;10.00;;;7.83;;
13040;SDS011;6587;42.728;23.288;2023-03-23T10:43:40;10.53;;;8.03;;
13040;SDS011;6587;42.728;23.288;2023-03-23T10:46:11;18.50;;;8.47;;
13040;SDS011;6587;42.728;23.288;2023-03-23T10:48:43;12.10;;;8.07;;
13040;SDS011;6587;42.728;23.288;2023-03-23T10:51:13;11.77;;;7.93;;
13040;SDS011;6587;42.728;23.288;2023-03-23T10:53:43;12.80;;;8.60;;
13040;SDS011;6587;42.728;23.288;2023-03-23T10:56:19;11.93;;;8.27;;
13040;SDS011;6587;42.728;23.288;2023-03-23T10:58:49;12.13;;;8.40;;
13040;SDS011;6587;42.728;23.288;2023-03-23T11:01:17;12.50;;;8.20;;
13040;SDS011;6587;42.728;23.288;2023-03-23T11:03:45;13.93;;;8.27;;
13040;SDS011;6587;42.728;23.288;2023-03-23T11:06:18;9.83;;;7.63;;
13040;SDS011;6587;42.728;23.288;2023-03-23T11:08:49;12.37;;;8.07;;
13040;SDS011;6587;42.728;23.288;2023-03-23T11:11:18;10.73;;;8.07;;
13040;SDS011;6587;42.728;23.288;2023-03-23T11:13:46;9.57;;;7.67;;
13040;SDS011;6587;42.728;23.288;2023-03-23T11:16:25;10.90;;;7.63;;
13040;SDS011;6587;42.728;23.288;2023-03-23T11:18:53;11.50;;;8.03;;
13040;SDS011;6587;42.728;23.288;2023-03-23T11:21:20;11.53;;;8.00;;
13040;SDS011;6587;42.728;23.288;2023-03-23T11:23:48;9.47;;;7.77;;
13040;SDS011;6587;42.728;23.288;2023-03-23T11:26:16;11.40;;;7.53;;
13040;SDS011;6587;42.728;23.288;2023-03-23T11:28:50;11.10;;;7.97;;
13040;SDS011;6587;42.728;23.288;2023-03-23T11:31:19;11.43;;;8.33;;
13040;SDS011;6587;42.728;23.288;2023-03-23T11:33:50;9.97;;;7.90;;
13040;SDS011;6587;42.728;23.288;2023-03-23T11:36:17;10.37;;;7.93;;
13040;SDS011;6587;42.728;23.288;2023-03-23T11:38:45;11.57;;;7.97;;
13040;SDS011;6587;42.728;23.288;2023-03-23T11:41:12;11.10;;;7.57;;
13040;SDS011;6587;42.728;23.288;2023-03-23T11:43:39;9.03;;;8.00;;
13040;SDS011;6587;42.728;23.288;2023-03-23T11:46:10;11.07;;;7.57;;
13040;SDS011;6587;42.728;23.288;2023-03-23T11:48:38;10.67;;;7.63;;
13040;SDS011;6587;42.728;23.288;2023-03-23T11:51:08;11.17;;;7.60;;
13040;SDS011;6587;42.728;23.288;2023-03-23T11:53:41;9.30;;;7.07;;
13040;SDS011;6587;42.728;23.288;2023-03-23T11:56:14;11.77;;;7.40;;
13040;SDS011;6587;42.728;23.288;2023-03-23T11:58:41;8.37;;;6.60;;
13040;SDS011;6587;42.728;23.288;2023-03-23T12:01:11;8.93;;;7.03;;
13040;SDS011;6587;42.728;23.288;2023-03-23T12:04:02;9.47;;;6.93;;
13040;SDS011;6587;42.728;23.288;2023-03-23T12:06:34;8.73;;;6.57;;
13040;SDS011;6587;42.728;23.288;2023-03-23T12:09:05;12.10;;;6.50;;
13040;SDS011;6587;42.728;23.288;2023-03-23T12:11:37;8.80;;;7.17;;
13040;SDS011;6587;42.728;23.288;2023-03-23T12:14:10;8.00;;;6.87;;
13040;SDS011;6587;42.728;23.288;2023-03-23T12:16:45;14.95;;;7.28;;
13040;SDS011;6587;42.728;23.288;2023-03-23T12:19:18;9.33;;;7.03;;
13040;SDS011;6587;42.728;23.288;2023-03-23T12:21:53;7.13;;;6.25;;
13040;SDS011;6587;42.728;23.288;2023-03-23T12:24:25;9.25;;;6.90;;
13040;SDS011;6587;42.728;23.288;2023-03-23T12:26:55;7.57;;;6.57;;
13040;SDS011;6587;42.728;23.288;2023-03-23T12:29:32;8.82;;;6.70;;
13040;SDS011;6587;42.728;23.288;2023-03-23T12:32:13;10.35;;;6.72;;
13040;SDS011;6587;42.728;23.288;2023-03-23T12:34:45;7.45;;;6.22;;
13040;SDS011;6587;42.728;23.288;2023-03-23T12:37:19;7.18;;;6.35;;
13040;SDS011;6587;42.728;23.288;2023-03-23T12:39:52;6.57;;;5.60;;
13040;SDS011;6587;42.728;23.288;2023-03-23T12:42:22;7.00;;;6.30;;
13040;SDS011;6587;42.728;23.288;2023-03-23T12:44:53;7.75;;;6.88;;
13040;SDS011;6587;42.728;23.288;2023-03-23T12:47:23;15.48;;;7.13;;
13040;SDS011;6587;42.728;23.288;2023-03-23T12:49:54;7.32;;;6.50;;
13040;SDS011;6587;42.728;23.288;2023-03-23T12:52:25;7.45;;;6.28;;
13040;SDS011;6587;42.728;23.288;2023-03-23T12:54:55;10.45;;;6.38;;
13040;SDS011;6587;42.728;23.288;2023-03-23T12:57:25;8.07;;;5.55;;
13040;SDS011;6587;42.728;23.288;2023-03-23T12:59:57;6.50;;;5.20;;
13040;SDS011;6587;42.728;23.288;2023-03-23T13:02:27;7.80;;;5.78;;
13040;SDS011;6587;42.728;23.288;2023-03-23T13:04:55;7.82;;;5.65;;
13040;SDS011;6587;42.728;23.288;2023-03-23T13:07:26;6.75;;;5.97;;
13040;SDS011;6587;42.728;23.288;2023-03-23T13:09:55;7.03;;;5.90;;
13040;SDS011;6587;42.728;23.288;2023-03-23T13:12:24;8.57;;;5.78;;
13040;SDS011;6587;42.728;23.288;2023-03-23T13:14:55;6.43;;;5.82;;
13040;SDS011;6587;42.728;23.288;2023-03-23T13:17:26;8.88;;;5.97;;
13040;SDS011;6587;42.728;23.288;2023-03-23T13:20:00;9.70;;;7.07;;
13040;SDS011;6587;42.728;23.288;2023-03-23T13:22:35;6.18;;;5.55;;
13040;SDS011;6587;42.728;23.288;2023-03-23T13:25:03;9.27;;;5.95;;
13040;SDS011;6587;42.728;23.288;2023-03-23T13:27:33;7.25;;;6.00;;
13040;SDS011;6587;42.728;23.288;2023-03-23T13:30:00;9.40;;;5.72;;
13040;SDS011;6587;42.728;23.288;2023-03-23T13:32:31;9.30;;;6.25;;
13040;SDS011;6587;42.728;23.288;2023-03-23T13:35:00;7.70;;;5.97;;
13040;SDS011;6587;42.728;23.288;2023-03-23T13:37:27;7.50;;;5.85;;
13040;SDS011;6587;42.728;23.288;2023-03-23T13:39:56;7.68;;;5.57;;
13040;SDS011;6587;42.728;23.288;2023-03-23T13:42:24;8.02;;;5.80;;
13040;SDS011;6587;42.728;23.288;2023-03-23T13:44:56;8.52;;;5.75;;
13040;SDS011;6587;42.728;23.288;2023-03-23T13:47:27;9.35;;;6.15;;
13040;SDS011;6587;42.728;23.288;2023-03-23T13:49:56;10.38;;;6.38;;
13040;SDS011;6587;42.728;23.288;2023-03-23T13:52:24;8.55;;;5.30;;
13040;SDS011;6587;42.728;23.288;2023-03-23T13:54:51;9.88;;;5.68;;
13040;SDS011;6587;42.728;23.288;2023-03-23T13:57:23;8.48;;;5.55;;
13040;SDS011;6587;42.728;23.288;2023-03-23T13:59:55;6.50;;;5.55;;
13040;SDS011;6587;42.728;23.288;2023-03-23T14:02:32;6.97;;;5.95;;
13040;SDS011;6587;42.728;23.288;2023-03-23T14:07:55;6.50;;;5.75;;
13040;SDS011;6587;42.728;23.288;2023-03-23T14:10:24;12.05;;;6.03;;
13040;SDS011;6587;42.728;23.288;2023-03-23T14:12:53;6.13;;;5.53;;
13040;SDS011;6587;42.728;23.288;2023-03-23T14:15:20;7.03;;;5.97;;
13040;SDS011;6587;42.728;23.288;2023-03-23T14:17:47;6.85;;;6.13;;
13040;SDS011;6587;42.728;23.288;2023-03-23T14:20:19;7.95;;;6.07;;
13040;SDS011;6587;42.728;23.288;2023-03-23T14:22:47;11.27;;;6.43;;
13040;SDS011;6587;42.728;23.288;2023-03-23T14:25:19;8.35;;;6.32;;
13040;SDS011;6587;42.728;23.288;2023-03-23T14:27:46;7.20;;;5.68;;
13040;SDS011;6587;42.728;23.288;2023-03-23T14:30:15;6.78;;;5.35;;
13040;SDS011;6587;42.728;23.288;2023-03-23T14:32:42;8.43;;;6.45;;
13040;SDS011;6587;42.728;23.288;2023-03-23T14:35:13;7.53;;;5.45;;
13040;SDS011;6587;42.728;23.288;2023-03-23T14:37:41;8.65;;;5.88;;
13040;SDS011;6587;42.728;23.288;2023-03-23T14:40:08;7.28;;;6.20;;
13040;SDS011;6587;42.728;23.288;2023-03-23T14:42:36;7.90;;;6.20;;
13040;SDS011;6587;42.728;23.288;2023-03-23T14:45:04;6.78;;;5.50;;
13040;SDS011;6587;42.728;23.288;2023-03-23T14:47:33;5.70;;;5.15;;
13040;SDS011;6587;42.728;23.288;2023-03-23T14:50:01;6.60;;;6.00;;
13040;SDS011;6587;42.728;23.288;2023-03-23T14:52:29;9.68;;;6.65;;
13040;SDS011;6587;42.728;23.288;2023-03-23T14:55:10;7.78;;;6.05;;
13040;SDS011;6587;42.728;23.288;2023-03-23T14:57:39;7.35;;;5.95;;
13040;SDS011;6587;42.728;23.288;2023-03-23T15:00:11;9.10;;;6.50;;
13040;SDS011;6587;42.728;23.288;2023-03-23T15:02:40;7.25;;;6.07;;